sensor_id;sensor_type;location;lat;lon;timestamp;pressure;altitude;pressure_sealevel;temperature;humidity
11415;BME280;5763;42.714;23.244;2023-04-15T00:01:57;93821.44;;;11.60;53.98
11415;BME280;5763;42.714;23.244;2023-04-15T00:04:24;93810.47;;;11.60;53.55
11415;BME280;5763;42.714;23.244;2023-04-15T00:06:53;93809.69;;;11.74;53.42
11415;BME280;5763;42.714;23.244;2023-04-15T00:09:20;93818.16;;;11.76;53.43
11415;BME280;5763;42.714;23.244;2023-04-15T00:11:47;93825.16;;;11.77;54.06
11415;BME280;5763;42.714;23.244;2023-04-15T00:14:13;93822.59;;;11.88;54.47
11415;BME280;5763;42.714;23.244;2023-04-15T00:16:40;93806.06;;;11.82;53.91
11415;BME280;5763;42.714;23.244;2023-04-15T00:19:07;93814.88;;;11.72;54.41
11415;BME280;5763;42.714;23.244;2023-04-15T00:21:34;93805.16;;;11.71;54.86
11415;BME280;5763;42.714;23.244;2023-04-15T00:24:02;93815.63;;;11.72;55.01
11415;BME280;5763;42.714;23.244;2023-04-15T00:26:29;93823.72;;;11.61;55.73
11415;BME280;5763;42.714;23.244;2023-04-15T00:28:56;93824.28;;;11.65;55.12
11415;BME280;5763;42.714;23.244;2023-04-15T00:31:23;93826.16;;;11.59;55.65
11415;BME280;5763;42.714;23.244;2023-04-15T00:33:49;93819.81;;;11.53;55.99
11415;BME280;5763;42.714;23.244;2023-04-15T00:36:16;93828.72;;;11.48;56.69
11415;BME280;5763;42.714;23.244;2023-04-15T00:38:43;93827.31;;;11.38;57.25
11415;BME280;5763;42.714;23.244;2023-04-15T00:41:11;93820.53;;;11.34;57.11
11415;BME280;5763;42.714;23.244;2023-04-15T00:43:38;93822.97;;;11.46;57.43
11415;BME280;5763;42.714;23.244;2023-04-15T00:46:05;93821.84;;;11.38;57.01
11415;BME280;5763;42.714;23.244;2023-04-15T00:48:34;93812.88;;;11.38;57.86
11415;BME280;5763;42.714;23.244;2023-04-15T00:51:01;93818.16;;;11.41;57.63
11415;BME280;5763;42.714;23.244;2023-04-15T00:53:28;93825.06;;;11.37;57.71
11415;BME280;5763;42.714;23.244;2023-04-15T00:55:55;93837.34;;;11.41;57.32
11415;BME280;5763;42.714;23.244;2023-04-15T00:58:23;93826.00;;;11.34;57.44
11415;BME280;5763;42.714;23.244;2023-04-15T01:00:50;93823.28;;;11.34;57.96
11415;BME280;5763;42.714;23.244;2023-04-15T01:03:18;93819.97;;;11.44;58.46
11415;BME280;5763;42.714;23.244;2023-04-15T01:05:45;93815.97;;;11.45;58.85
11415;BME280;5763;42.714;23.244;2023-04-15T01:08:12;93782.59;;;11.12;59.14
11415;BME280;5763;42.714;23.244;2023-04-15T01:10:39;93819.09;;;11.38;58.66
11415;BME280;5763;42.714;23.244;2023-04-15T01:13:06;93821.09;;;11.38;58.91
11415;BME280;5763;42.714;23.244;2023-04-15T01:15:35;93820.25;;;11.32;59.33
11415;BME280;5763;42.714;23.244;2023-04-15T01:18:02;93829.78;;;11.36;59.54
11415;BME280;5763;42.714;23.244;2023-04-15T01:20:29;93829.69;;;11.31;59.77
11415;BME280;5763;42.714;23.244;2023-04-15T01:22:55;93830.00;;;11.33;59.64
11415;BME280;5763;42.714;23.244;2023-04-15T01:25:30;93826.22;;;11.30;59.24
11415;BME280;5763;42.714;23.244;2023-04-15T01:27:58;93826.00;;;11.34;58.89
11415;BME280;5763;42.714;23.244;2023-04-15T01:30:25;93829.78;;;11.36;58.43
11415;BME280;5763;42.714;23.244;2023-04-15T01:32:52;93830.34;;;11.40;58.44
11415;BME280;5763;42.714;23.244;2023-04-15T01:35:19;93831.59;;;11.39;60.01
11415;BME280;5763;42.714;23.244;2023-04-15T01:37:47;93832.31;;;11.40;59.69
11415;BME280;5763;42.714;23.244;2023-04-15T01:40:14;93822.34;;;11.22;59.93
11415;BME280;5763;42.714;23.244;2023-04-15T01:42:42;93824.91;;;11.11;60.53
11415;BME280;5763;42.714;23.244;2023-04-15T01:45:10;93828.69;;;11.14;59.85
11415;BME280;5763;42.714;23.244;2023-04-15T01:47:36;93834.09;;;11.08;59.82
11415;BME280;5763;42.714;23.244;2023-04-15T01:50:04;93833.78;;;11.06;59.97
11415;BME280;5763;42.714;23.244;2023-04-15T01:52:31;93827.53;;;11.20;59.81
11415;BME280;5763;42.714;23.244;2023-04-15T01:54:58;93834.25;;;11.19;59.95
11415;BME280;5763;42.714;23.244;2023-04-15T01:57:25;93830.75;;;11.19;59.91
11415;BME280;5763;42.714;23.244;2023-04-15T01:59:53;93829.44;;;11.14;60.67
11415;BME280;5763;42.714;23.244;2023-04-15T02:02:20;93836.06;;;11.08;60.70
11415;BME280;5763;42.714;23.244;2023-04-15T02:04:47;93835.28;;;11.07;61.25
11415;BME280;5763;42.714;23.244;2023-04-15T02:07:14;93835.28;;;11.07;61.05
11415;BME280;5763;42.714;23.244;2023-04-15T02:09:41;93836.72;;;11.03;61.41
11415;BME280;5763;42.714;23.244;2023-04-15T02:12:08;93848.06;;;10.96;61.98
11415;BME280;5763;42.714;23.244;2023-04-15T02:14:35;93847.97;;;10.90;62.38
11415;BME280;5763;42.714;23.244;2023-04-15T02:17:03;93842.47;;;10.90;62.51
11415;BME280;5763;42.714;23.244;2023-04-15T02:19:32;93841.44;;;10.88;62.31
11415;BME280;5763;42.714;23.244;2023-04-15T02:21:59;93838.44;;;10.86;62.45
11415;BME280;5763;42.714;23.244;2023-04-15T02:24:29;93839.84;;;10.81;63.01
11415;BME280;5763;42.714;23.244;2023-04-15T02:26:56;93835.00;;;10.76;62.99
11415;BME280;5763;42.714;23.244;2023-04-15T02:29:23;93842.38;;;10.70;63.00
11415;BME280;5763;42.714;23.244;2023-04-15T02:31:50;93834.81;;;10.65;63.00
11415;BME280;5763;42.714;23.244;2023-04-15T02:34:18;93835.88;;;10.68;63.31
11415;BME280;5763;42.714;23.244;2023-04-15T02:36:44;93843.81;;;10.66;63.22
11415;BME280;5763;42.714;23.244;2023-04-15T02:39:13;93837.19;;;10.72;63.29
11415;BME280;5763;42.714;23.244;2023-04-15T02:41:41;93834.91;;;10.56;63.86
11415;BME280;5763;42.714;23.244;2023-04-15T02:44:08;93849.06;;;10.55;64.10
11415;BME280;5763;42.714;23.244;2023-04-15T02:46:37;93847.72;;;10.50;64.27
11415;BME280;5763;42.714;23.244;2023-04-15T02:49:05;93848.84;;;10.44;63.61
11415;BME280;5763;42.714;23.244;2023-04-15T02:51:34;93840.09;;;10.40;63.14
11415;BME280;5763;42.714;23.244;2023-04-15T02:54:00;93844.78;;;10.39;62.87
11415;BME280;5763;42.714;23.244;2023-04-15T02:56:27;93851.19;;;10.36;62.58
11415;BME280;5763;42.714;23.244;2023-04-15T02:58:54;93853.28;;;10.41;62.35
11415;BME280;5763;42.714;23.244;2023-04-15T03:01:21;93832.13;;;10.27;62.02
11415;BME280;5763;42.714;23.244;2023-04-15T03:03:48;93856.09;;;10.32;61.76
11415;BME280;5763;42.714;23.244;2023-04-15T03:06:15;93854.00;;;10.27;61.15
11415;BME280;5763;42.714;23.244;2023-04-15T03:08:43;93862.09;;;10.22;61.14
11415;BME280;5763;42.714;23.244;2023-04-15T03:11:10;93862.34;;;10.09;61.23
11415;BME280;5763;42.714;23.244;2023-04-15T03:13:37;93863.84;;;10.10;61.69
11415;BME280;5763;42.714;23.244;2023-04-15T03:16:06;93863.00;;;9.95;61.97
11415;BME280;5763;42.714;23.244;2023-04-15T03:18:33;93856.22;;;9.91;62.38
11415;BME280;5763;42.714;23.244;2023-04-15T03:21:00;93856.63;;;9.98;62.07
11415;BME280;5763;42.714;23.244;2023-04-15T03:23:27;93861.50;;;9.94;62.00
11415;BME280;5763;42.714;23.244;2023-04-15T03:25:55;93864.00;;;9.83;62.15
11415;BME280;5763;42.714;23.244;2023-04-15T03:28:22;93878.97;;;9.64;62.67
11415;BME280;5763;42.714;23.244;2023-04-15T03:30:49;93875.16;;;9.71;62.42
11415;BME280;5763;42.714;23.244;2023-04-15T03:33:16;93885.44;;;9.76;62.64
11415;BME280;5763;42.714;23.244;2023-04-15T03:35:43;93885.78;;;9.69;62.82
11415;BME280;5763;42.714;23.244;2023-04-15T03:38:09;93898.25;;;9.61;63.76
11415;BME280;5763;42.714;23.244;2023-04-15T03:40:37;93894.44;;;9.67;63.33
11415;BME280;5763;42.714;23.244;2023-04-15T03:43:05;93898.44;;;9.57;63.06
11415;BME280;5763;42.714;23.244;2023-04-15T03:45:32;93906.59;;;9.66;62.69
11415;BME280;5763;42.714;23.244;2023-04-15T03:47:58;93906.00;;;9.62;63.00
11415;BME280;5763;42.714;23.244;2023-04-15T03:50:25;93906.34;;;9.55;63.54
11415;BME280;5763;42.714;23.244;2023-04-15T03:52:52;93913.16;;;9.51;63.36
11415;BME280;5763;42.714;23.244;2023-04-15T03:55:19;93917.56;;;9.57;63.49
11415;BME280;5763;42.714;23.244;2023-04-15T03:57:46;93913.59;;;9.58;63.71
11415;BME280;5763;42.714;23.244;2023-04-15T04:00:14;93916.34;;;9.49;64.02
11415;BME280;5763;42.714;23.244;2023-04-15T04:02:41;93907.44;;;9.49;64.10
11415;BME280;5763;42.714;23.244;2023-04-15T04:05:08;93907.25;;;9.52;63.99
11415;BME280;5763;42.714;23.244;2023-04-15T04:07:34;93914.81;;;9.57;63.56
11415;BME280;5763;42.714;23.244;2023-04-15T04:10:01;93911.19;;;9.60;63.68
11415;BME280;5763;42.714;23.244;2023-04-15T04:12:29;93918.53;;;9.45;64.28
11415;BME280;5763;42.714;23.244;2023-04-15T04:14:55;93919.09;;;9.49;64.19
11415;BME280;5763;42.714;23.244;2023-04-15T04:17:24;93918.34;;;9.49;64.26
11415;BME280;5763;42.714;23.244;2023-04-15T04:19:50;93907.88;;;9.47;63.79
11415;BME280;5763;42.714;23.244;2023-04-15T04:22:21;93903.94;;;9.48;63.40
11415;BME280;5763;42.714;23.244;2023-04-15T04:24:48;93916.06;;;9.47;63.34
11415;BME280;5763;42.714;23.244;2023-04-15T04:27:14;93922.13;;;9.51;63.25
11415;BME280;5763;42.714;23.244;2023-04-15T04:29:41;93919.06;;;9.58;63.34
11415;BME280;5763;42.714;23.244;2023-04-15T04:32:08;93928.03;;;9.59;63.07
11415;BME280;5763;42.714;23.244;2023-04-15T04:34:37;93928.19;;;9.55;63.40
11415;BME280;5763;42.714;23.244;2023-04-15T04:37:04;93927.25;;;9.58;63.46
11415;BME280;5763;42.714;23.244;2023-04-15T04:39:31;93924.25;;;9.56;63.66
11415;BME280;5763;42.714;23.244;2023-04-15T04:41:58;93927.41;;;9.64;63.11
11415;BME280;5763;42.714;23.244;2023-04-15T04:44:25;93929.34;;;9.63;63.34
11415;BME280;5763;42.714;23.244;2023-04-15T04:46:52;93936.19;;;9.68;63.26
11415;BME280;5763;42.714;23.244;2023-04-15T04:49:18;93929.47;;;9.78;63.01
11415;BME280;5763;42.714;23.244;2023-04-15T04:51:47;93927.00;;;9.80;63.15
11415;BME280;5763;42.714;23.244;2023-04-15T04:54:13;93926.25;;;9.79;63.00
11415;BME280;5763;42.714;23.244;2023-04-15T04:56:40;93935.97;;;9.80;63.29
11415;BME280;5763;42.714;23.244;2023-04-15T04:59:07;93937.00;;;9.83;63.66
11415;BME280;5763;42.714;23.244;2023-04-15T05:01:34;93935.31;;;9.85;63.63
11415;BME280;5763;42.714;23.244;2023-04-15T05:04:00;93944.06;;;10.07;62.87
11415;BME280;5763;42.714;23.244;2023-04-15T05:06:29;93948.88;;;10.12;62.22
11415;BME280;5763;42.714;23.244;2023-04-15T05:08:57;93942.16;;;10.22;62.11
11415;BME280;5763;42.714;23.244;2023-04-15T05:11:24;93953.31;;;10.33;62.33
11415;BME280;5763;42.714;23.244;2023-04-15T05:13:51;93954.63;;;10.38;61.86
11415;BME280;5763;42.714;23.244;2023-04-15T05:16:17;93959.00;;;10.44;61.76
11415;BME280;5763;42.714;23.244;2023-04-15T05:18:45;93967.38;;;10.41;61.63
11415;BME280;5763;42.714;23.244;2023-04-15T05:21:11;93959.78;;;10.45;61.40
11415;BME280;5763;42.714;23.244;2023-04-15T05:23:39;93968.38;;;10.52;60.56
11415;BME280;5763;42.714;23.244;2023-04-15T05:26:07;93966.56;;;10.49;60.67
11415;BME280;5763;42.714;23.244;2023-04-15T05:28:33;93972.81;;;10.50;60.70
11415;BME280;5763;42.714;23.244;2023-04-15T05:31:00;93970.47;;;10.57;61.19
11415;BME280;5763;42.714;23.244;2023-04-15T05:33:27;93961.91;;;10.64;60.75
11415;BME280;5763;42.714;23.244;2023-04-15T05:35:54;93959.75;;;10.68;60.48
11415;BME280;5763;42.714;23.244;2023-04-15T05:38:21;93963.69;;;10.67;60.45
11415;BME280;5763;42.714;23.244;2023-04-15T05:40:47;93960.78;;;10.71;60.83
11415;BME280;5763;42.714;23.244;2023-04-15T05:43:15;93975.91;;;10.81;60.51
11415;BME280;5763;42.714;23.244;2023-04-15T05:45:42;93972.94;;;10.93;60.05
11415;BME280;5763;42.714;23.244;2023-04-15T05:48:09;93974.44;;;10.94;60.20
11415;BME280;5763;42.714;23.244;2023-04-15T05:50:35;93982.19;;;10.96;59.92
11415;BME280;5763;42.714;23.244;2023-04-15T05:53:02;93983.91;;;11.08;59.75
11415;BME280;5763;42.714;23.244;2023-04-15T05:55:29;93975.41;;;11.20;59.33
11415;BME280;5763;42.714;23.244;2023-04-15T05:57:56;93979.94;;;11.23;59.17
11415;BME280;5763;42.714;23.244;2023-04-15T06:00:24;93979.00;;;11.26;59.22
11415;BME280;5763;42.714;23.244;2023-04-15T06:02:51;93983.16;;;11.36;59.18
11415;BME280;5763;42.714;23.244;2023-04-15T06:05:19;93991.31;;;11.45;58.76
11415;BME280;5763;42.714;23.244;2023-04-15T06:07:45;93978.84;;;11.44;58.75
11415;BME280;5763;42.714;23.244;2023-04-15T06:10:12;93977.03;;;11.56;57.92
11415;BME280;5763;42.714;23.244;2023-04-15T06:12:39;93983.47;;;11.67;57.54
11415;BME280;5763;42.714;23.244;2023-04-15T06:15:06;93990.38;;;11.77;57.56
11415;BME280;5763;42.714;23.244;2023-04-15T06:17:36;93986.50;;;11.84;57.24
11415;BME280;5763;42.714;23.244;2023-04-15T06:20:03;93999.06;;;11.90;57.54
11415;BME280;5763;42.714;23.244;2023-04-15T06:22:30;94006.22;;;12.02;56.52
11415;BME280;5763;42.714;23.244;2023-04-15T06:24:56;94006.84;;;12.12;56.36
11415;BME280;5763;42.714;23.244;2023-04-15T06:27:23;94007.47;;;12.01;56.97
11415;BME280;5763;42.714;23.244;2023-04-15T06:29:50;94013.22;;;12.03;57.24
11415;BME280;5763;42.714;23.244;2023-04-15T06:32:17;94009.72;;;12.03;57.80
11415;BME280;5763;42.714;23.244;2023-04-15T06:34:45;94020.69;;;11.88;58.68
11415;BME280;5763;42.714;23.244;2023-04-15T06:37:12;94021.34;;;11.98;58.32
11415;BME280;5763;42.714;23.244;2023-04-15T06:39:40;94026.16;;;12.03;58.19
11415;BME280;5763;42.714;23.244;2023-04-15T06:42:07;94022.56;;;12.11;59.38
11415;BME280;5763;42.714;23.244;2023-04-15T06:44:35;94025.91;;;12.35;58.51
11415;BME280;5763;42.714;23.244;2023-04-15T06:47:02;94021.13;;;12.50;58.11
11415;BME280;5763;42.714;23.244;2023-04-15T06:49:29;94033.31;;;12.64;57.86
11415;BME280;5763;42.714;23.244;2023-04-15T06:51:57;94016.72;;;12.73;57.05
11415;BME280;5763;42.714;23.244;2023-04-15T06:54:25;94037.91;;;12.92;56.92
11415;BME280;5763;42.714;23.244;2023-04-15T06:56:51;94039.94;;;12.92;57.04
11415;BME280;5763;42.714;23.244;2023-04-15T06:59:18;94027.50;;;13.16;55.80
11415;BME280;5763;42.714;23.244;2023-04-15T07:01:45;94020.50;;;13.35;56.38
11415;BME280;5763;42.714;23.244;2023-04-15T07:04:12;94009.97;;;13.34;55.72
11415;BME280;5763;42.714;23.244;2023-04-15T07:06:38;94016.91;;;13.49;55.62
11415;BME280;5763;42.714;23.244;2023-04-15T07:09:07;94016.34;;;13.45;55.45
11415;BME280;5763;42.714;23.244;2023-04-15T07:11:34;94022.06;;;13.42;54.71
11415;BME280;5763;42.714;23.244;2023-04-15T07:14:01;94016.28;;;13.40;54.81
11415;BME280;5763;42.714;23.244;2023-04-15T07:16:28;94024.84;;;13.47;54.82
11415;BME280;5763;42.714;23.244;2023-04-15T07:18:55;94028.44;;;13.33;54.29
11415;BME280;5763;42.714;23.244;2023-04-15T07:21:22;94033.88;;;13.48;54.83
11415;BME280;5763;42.714;23.244;2023-04-15T07:23:49;94019.22;;;13.56;54.47
11415;BME280;5763;42.714;23.244;2023-04-15T07:26:17;94022.03;;;13.62;54.17
11415;BME280;5763;42.714;23.244;2023-04-15T07:28:44;94022.81;;;13.68;53.80
11415;BME280;5763;42.714;23.244;2023-04-15T07:31:11;94032.03;;;13.65;54.00
11415;BME280;5763;42.714;23.244;2023-04-15T07:33:39;94031.06;;;13.68;53.25
11415;BME280;5763;42.714;23.244;2023-04-15T07:36:06;94021.28;;;13.67;52.82
11415;BME280;5763;42.714;23.244;2023-04-15T07:38:33;94025.72;;;13.84;52.20
11415;BME280;5763;42.714;23.244;2023-04-15T07:40:59;94017.59;;;13.95;52.09
11415;BME280;5763;42.714;23.244;2023-04-15T07:43:28;94029.16;;;14.05;52.19
11415;BME280;5763;42.714;23.244;2023-04-15T07:45:55;94027.06;;;14.20;52.21
11415;BME280;5763;42.714;23.244;2023-04-15T07:48:22;94025.63;;;14.30;50.82
11415;BME280;5763;42.714;23.244;2023-04-15T07:50:48;94034.81;;;14.52;50.88
11415;BME280;5763;42.714;23.244;2023-04-15T07:53:15;94037.44;;;14.78;52.24
11415;BME280;5763;42.714;23.244;2023-04-15T07:55:42;94032.53;;;14.93;44.48
11415;BME280;5763;42.714;23.244;2023-04-15T07:58:08;94037.28;;;14.92;42.35
11415;BME280;5763;42.714;23.244;2023-04-15T08:00:37;94045.28;;;14.90;42.13
11415;BME280;5763;42.714;23.244;2023-04-15T08:03:04;94043.06;;;15.00;40.60
11415;BME280;5763;42.714;23.244;2023-04-15T08:05:31;94046.38;;;15.09;39.96
11415;BME280;5763;42.714;23.244;2023-04-15T08:07:58;94043.06;;;14.94;40.13
11415;BME280;5763;42.714;23.244;2023-04-15T08:10:25;94037.84;;;15.07;39.90
11415;BME280;5763;42.714;23.244;2023-04-15T08:12:53;94045.94;;;15.27;39.72
11415;BME280;5763;42.714;23.244;2023-04-15T08:15:20;94058.50;;;15.28;39.13
11415;BME280;5763;42.714;23.244;2023-04-15T08:17:49;94052.28;;;15.33;39.65
11415;BME280;5763;42.714;23.244;2023-04-15T08:20:15;94055.09;;;15.44;38.62
11415;BME280;5763;42.714;23.244;2023-04-15T08:22:42;94043.53;;;15.40;38.27
11415;BME280;5763;42.714;23.244;2023-04-15T08:25:09;94051.06;;;15.45;39.07
11415;BME280;5763;42.714;23.244;2023-04-15T08:27:35;94038.34;;;15.70;37.78
11415;BME280;5763;42.714;23.244;2023-04-15T08:30:03;94038.16;;;15.95;36.94
11415;BME280;5763;42.714;23.244;2023-04-15T08:32:30;94045.44;;;16.15;36.70
11415;BME280;5763;42.714;23.244;2023-04-15T08:35:00;94033.66;;;16.20;36.97
11415;BME280;5763;42.714;23.244;2023-04-15T08:37:26;94047.94;;;16.29;36.94
11415;BME280;5763;42.714;23.244;2023-04-15T08:39:53;94036.16;;;16.34;36.50
11415;BME280;5763;42.714;23.244;2023-04-15T08:42:25;94036.94;;;16.52;37.85
11415;BME280;5763;42.714;23.244;2023-04-15T08:44:54;94021.34;;;16.65;34.92
11415;BME280;5763;42.714;23.244;2023-04-15T08:47:22;94041.41;;;16.82;35.57
11415;BME280;5763;42.714;23.244;2023-04-15T08:49:53;94035.91;;;16.71;35.14
11415;BME280;5763;42.714;23.244;2023-04-15T08:52:23;94031.88;;;16.72;34.71
11415;BME280;5763;42.714;23.244;2023-04-15T08:54:51;94023.56;;;16.88;34.46
11415;BME280;5763;42.714;23.244;2023-04-15T08:57:23;94026.06;;;16.86;33.36
11415;BME280;5763;42.714;23.244;2023-04-15T08:59:50;94030.84;;;16.86;33.96
11415;BME280;5763;42.714;23.244;2023-04-15T09:02:18;94033.84;;;16.88;32.82
11415;BME280;5763;42.714;23.244;2023-04-15T09:04:45;94022.59;;;16.69;32.68
11415;BME280;5763;42.714;23.244;2023-04-15T09:07:11;94025.09;;;16.78;33.10
11415;BME280;5763;42.714;23.244;2023-04-15T09:09:40;94017.22;;;16.99;32.79
11415;BME280;5763;42.714;23.244;2023-04-15T09:12:07;94007.63;;;17.22;32.31
11415;BME280;5763;42.714;23.244;2023-04-15T09:14:34;94034.00;;;17.28;32.00
11415;BME280;5763;42.714;23.244;2023-04-15T09:17:03;94006.06;;;17.32;32.11
11415;BME280;5763;42.714;23.244;2023-04-15T09:19:30;94020.38;;;17.42;31.39
11415;BME280;5763;42.714;23.244;2023-04-15T09:21:58;94018.09;;;17.46;31.10
11415;BME280;5763;42.714;23.244;2023-04-15T09:24:33;94007.81;;;17.41;30.28
11415;BME280;5763;42.714;23.244;2023-04-15T09:27:03;93993.56;;;17.72;30.25
11415;BME280;5763;42.714;23.244;2023-04-15T09:29:30;94003.34;;;17.78;29.94
11415;BME280;5763;42.714;23.244;2023-04-15T09:32:08;93998.22;;;17.88;27.89
11415;BME280;5763;42.714;23.244;2023-04-15T09:34:35;94010.09;;;17.83;29.03
11415;BME280;5763;42.714;23.244;2023-04-15T09:37:02;94022.25;;;18.09;29.43
11415;BME280;5763;42.714;23.244;2023-04-15T09:39:44;94004.06;;;18.19;29.03
11415;BME280;5763;42.714;23.244;2023-04-15T09:42:13;94006.50;;;18.28;29.04
11415;BME280;5763;42.714;23.244;2023-04-15T09:44:42;94027.91;;;18.33;28.36
11415;BME280;5763;42.714;23.244;2023-04-15T09:47:26;94018.50;;;18.07;28.80
11415;BME280;5763;42.714;23.244;2023-04-15T09:49:54;94019.88;;;17.89;27.98
11415;BME280;5763;42.714;23.244;2023-04-15T09:52:21;94013.63;;;17.83;26.71
11415;BME280;5763;42.714;23.244;2023-04-15T09:54:52;94015.59;;;17.88;27.96
11415;BME280;5763;42.714;23.244;2023-04-15T09:57:20;94017.28;;;17.56;28.69
11415;BME280;5763;42.714;23.244;2023-04-15T09:59:48;94021.88;;;17.42;27.67
11415;BME280;5763;42.714;23.244;2023-04-15T10:02:15;94029.72;;;17.39;28.40
11415;BME280;5763;42.714;23.244;2023-04-15T10:04:44;94016.16;;;17.24;28.60
11415;BME280;5763;42.714;23.244;2023-04-15T10:07:14;94016.47;;;17.67;29.08
11415;BME280;5763;42.714;23.244;2023-04-15T10:09:44;94017.00;;;18.06;29.10
11415;BME280;5763;42.714;23.244;2023-04-15T10:12:11;94016.00;;;18.38;27.75
11415;BME280;5763;42.714;23.244;2023-04-15T10:14:41;94010.66;;;18.46;27.45
11415;BME280;5763;42.714;23.244;2023-04-15T10:17:10;94012.59;;;18.21;28.49
11415;BME280;5763;42.714;23.244;2023-04-15T10:19:38;94003.19;;;18.00;28.07
11415;BME280;5763;42.714;23.244;2023-04-15T10:22:05;94016.09;;;17.87;28.89
11415;BME280;5763;42.714;23.244;2023-04-15T10:24:33;94001.66;;;17.58;28.51
11415;BME280;5763;42.714;23.244;2023-04-15T10:27:00;93991.78;;;17.74;28.57
11415;BME280;5763;42.714;23.244;2023-04-15T10:29:28;93996.63;;;18.03;28.83
11415;BME280;5763;42.714;23.244;2023-04-15T10:31:58;93985.97;;;18.13;29.08
11415;BME280;5763;42.714;23.244;2023-04-15T10:34:26;93981.50;;;18.39;27.81
11415;BME280;5763;42.714;23.244;2023-04-15T10:36:54;93983.66;;;18.76;27.16
11415;BME280;5763;42.714;23.244;2023-04-15T10:39:41;93991.03;;;18.92;26.73
11415;BME280;5763;42.714;23.244;2023-04-15T10:42:10;93984.88;;;18.80;26.31
11415;BME280;5763;42.714;23.244;2023-04-15T10:44:38;93981.47;;;18.93;26.02
11415;BME280;5763;42.714;23.244;2023-04-15T10:47:09;93978.75;;;19.11;26.23
11415;BME280;5763;42.714;23.244;2023-04-15T10:49:43;93979.47;;;19.36;26.70
11415;BME280;5763;42.714;23.244;2023-04-15T10:52:12;93981.91;;;19.21;26.62
11415;BME280;5763;42.714;23.244;2023-04-15T10:54:40;93973.16;;;19.35;26.73
11415;BME280;5763;42.714;23.244;2023-04-15T10:57:08;93978.03;;;19.66;26.15
11415;BME280;5763;42.714;23.244;2023-04-15T10:59:36;93981.72;;;19.93;26.50
11415;BME280;5763;42.714;23.244;2023-04-15T11:02:05;93968.78;;;20.14;25.46
11415;BME280;5763;42.714;23.244;2023-04-15T11:04:53;93960.13;;;20.49;25.50
11415;BME280;5763;42.714;23.244;2023-04-15T11:07:33;93978.63;;;20.46;25.93
11415;BME280;5763;42.714;23.244;2023-04-15T11:10:00;93969.56;;;20.46;25.87
11415;BME280;5763;42.714;23.244;2023-04-15T11:12:33;93960.31;;;20.38;26.03
11415;BME280;5763;42.714;23.244;2023-04-15T11:15:26;93963.75;;;20.31;25.46
11415;BME280;5763;42.714;23.244;2023-04-15T11:17:53;93951.72;;;20.54;25.78
11415;BME280;5763;42.714;23.244;2023-04-15T11:20:21;93952.44;;;20.55;26.29
11415;BME280;5763;42.714;23.244;2023-04-15T11:22:49;93943.59;;;20.69;26.05
11415;BME280;5763;42.714;23.244;2023-04-15T11:25:22;93953.84;;;20.61;24.57
11415;BME280;5763;42.714;23.244;2023-04-15T11:27:50;93952.63;;;20.44;24.82
11415;BME280;5763;42.714;23.244;2023-04-15T11:30:19;93948.69;;;20.52;24.79
11415;BME280;5763;42.714;23.244;2023-04-15T11:32:47;93957.75;;;20.84;23.93
11415;BME280;5763;42.714;23.244;2023-04-15T11:35:15;93949.69;;;20.81;24.75
11415;BME280;5763;42.714;23.244;2023-04-15T11:37:44;93948.44;;;20.82;24.85
11415;BME280;5763;42.714;23.244;2023-04-15T11:40:11;93944.81;;;21.00;25.40
11415;BME280;5763;42.714;23.244;2023-04-15T11:42:40;93940.31;;;21.23;25.44
11415;BME280;5763;42.714;23.244;2023-04-15T11:45:07;93934.84;;;21.17;24.08
11415;BME280;5763;42.714;23.244;2023-04-15T11:47:34;93952.41;;;20.99;24.97
11415;BME280;5763;42.714;23.244;2023-04-15T11:50:15;93952.59;;;21.14;24.77
11415;BME280;5763;42.714;23.244;2023-04-15T11:52:52;93939.34;;;20.94;25.04
11415;BME280;5763;42.714;23.244;2023-04-15T11:55:19;93940.41;;;21.04;24.76
11415;BME280;5763;42.714;23.244;2023-04-15T11:57:46;93943.50;;;21.27;24.15
11415;BME280;5763;42.714;23.244;2023-04-15T12:00:13;93938.75;;;21.48;23.14
11415;BME280;5763;42.714;23.244;2023-04-15T12:02:41;93952.41;;;21.25;23.66
11415;BME280;5763;42.714;23.244;2023-04-15T12:05:08;93951.44;;;21.23;22.76
11415;BME280;5763;42.714;23.244;2023-04-15T12:07:58;93950.78;;;21.17;23.45
11415;BME280;5763;42.714;23.244;2023-04-15T12:10:25;93948.28;;;21.52;23.33
11415;BME280;5763;42.714;23.244;2023-04-15T12:12:52;93944.72;;;21.65;23.44
11415;BME280;5763;42.714;23.244;2023-04-15T12:15:21;93950.75;;;21.43;22.11
11415;BME280;5763;42.714;23.244;2023-04-15T12:17:48;93944.31;;;21.48;22.03
11415;BME280;5763;42.714;23.244;2023-04-15T12:20:20;93940.03;;;21.47;22.74
11415;BME280;5763;42.714;23.244;2023-04-15T12:22:49;93926.41;;;21.23;22.05
11415;BME280;5763;42.714;23.244;2023-04-15T12:25:17;93950.25;;;21.31;22.71
11415;BME280;5763;42.714;23.244;2023-04-15T12:27:50;93952.84;;;21.03;22.65
11415;BME280;5763;42.714;23.244;2023-04-15T12:30:17;93948.97;;;20.93;22.92
11415;BME280;5763;42.714;23.244;2023-04-15T12:32:45;93959.72;;;20.71;24.28
11415;BME280;5763;42.714;23.244;2023-04-15T12:35:12;93953.75;;;20.67;24.51
11415;BME280;5763;42.714;23.244;2023-04-15T12:37:39;93950.66;;;20.70;22.38
11415;BME280;5763;42.714;23.244;2023-04-15T12:40:07;93952.09;;;20.90;21.53
11415;BME280;5763;42.714;23.244;2023-04-15T12:42:35;93946.06;;;20.86;22.32
11415;BME280;5763;42.714;23.244;2023-04-15T12:45:02;93962.78;;;20.99;22.63
11415;BME280;5763;42.714;23.244;2023-04-15T12:47:29;93951.22;;;20.82;22.60
11415;BME280;5763;42.714;23.244;2023-04-15T12:49:56;93958.84;;;21.20;21.95
11415;BME280;5763;42.714;23.244;2023-04-15T12:52:22;93942.53;;;21.37;21.41
11415;BME280;5763;42.714;23.244;2023-04-15T12:54:49;93952.84;;;21.63;21.07
11415;BME280;5763;42.714;23.244;2023-04-15T12:57:18;93959.81;;;21.82;20.56
11415;BME280;5763;42.714;23.244;2023-04-15T12:59:46;93958.97;;;22.08;20.92
11415;BME280;5763;42.714;23.244;2023-04-15T13:02:13;93951.03;;;22.12;21.00
11415;BME280;5763;42.714;23.244;2023-04-15T13:04:40;93959.25;;;22.38;20.19
11415;BME280;5763;42.714;23.244;2023-04-15T13:07:06;93965.16;;;22.14;20.25